Belews Creek, North Carolina
Current Conditions -  °F | °C
As of 9:54 AM on Wednesday 22 Oct 2014 (Local Time) from KINT Reporting Station
Clear Clear  
Wind Chill: 54°   Ceiling: Unl
Heat Index: 54°   Visibility: 10mi
Dew Point: 36°   Wind: 10mph
Humidity: 51%   Direction: 320°NW
Pressure: 30.06"   Gusts: NA
Location:  36.24°N, 80.07°W
Report Text: KINT 221354Z 32009KT 10SM CLR 12/02 A3006 RMK AO2 SLP176 T01220022
Loading
Personal Weather Stations






























Interactive Weather Map
Tropical Storm Tracking
New forecast layout! Learn more

10-Day Weather Forecast

Advertisements
Track Severe Weather on mobile